Time;durP1;ratioP1;P1;durP2;ratioP2;P2;SDS_P1;SDS_P2;PMS_P1;PMS_P2;Temp;Humidity;BMP_temperature;BMP_pressure;BME280_temperature;BME280_humidity;BME280_pressure;Samples;Min_cycle;Max_cycle;Signal;HPM_P1;HPM_P2
2021/12/05 00:21:42;;;;;;;1.30;0.45;;;9.40;73.90;;;;;;4995218;28;19918;-93
2021/12/05 00:24:22;;;;;;;3.03;0.75;;;9.50;73.90;;;;;;4943759;28;20582;-94
2021/12/05 00:27:01;;;;;;;3.20;0.98;;;9.50;73.80;;;;;;4948687;28;20096;-93
2021/12/05 00:29:40;;;;;;;2.35;0.77;;;9.60;73.70;;;;;;4961841;28;20030;-90
2021/12/05 00:32:16;;;;;;;3.67;0.70;;;9.60;73.80;;;;;;4949890;28;20099;-93
2021/12/05 01:12:33;;;;;;;1.25;0.50;;;9.40;74.00;;;;;;4973848;28;20104;-93
2021/12/05 01:15:11;;;;;;;2.10;0.50;;;9.40;74.00;;;;;;4977084;28;20065;-92
2021/12/05 01:18:01;;;;;;;2.97;0.52;;;9.50;73.90;;;;;;4973899;28;20431;-93
2021/12/05 01:20:31;;;;;;;1.13;0.50;;;9.50;74.00;;;;;;4972067;28;20053;-93
2021/12/05 01:23:04;;;;;;;3.88;1.00;;;9.50;74.00;;;;;;4969631;28;20046;-90
2021/12/05 01:55:18;;;;;;;1.77;0.65;;;9.40;73.90;;;;;;4992014;28;20046;-93
2021/12/05 01:57:39;;;;;;;1.42;0.40;;;9.60;74.00;;;;;;5001447;28;20037;-94
2021/12/05 02:03:10;;;;;;;2.35;0.52;;;9.50;73.80;;;;;;4995984;28;20030;-91
2021/12/05 02:08:48;;;;;;;2.17;0.60;;;9.50;73.70;;;;;;4999344;28;20431;-93
2021/12/05 02:36:08;;;;;;;4.50;0.82;;;9.40;73.30;;;;;;4992707;28;20045;-92
2021/12/05 02:43:36;;;;;;;2.80;0.90;;;9.40;73.10;;;;;;4965099;28;20558;-93
2021/12/05 02:46:05;;;;;;;0.98;0.43;;;9.50;73.20;;;;;;4961070;28;20034;-93
2021/12/05 02:48:35;;;;;;;1.15;0.43;;;9.50;73.10;;;;;;4962806;28;20697;-93
2021/12/05 02:51:08;;;;;;;0.45;0.30;;;9.50;73.00;;;;;;4973671;28;20548;-92
2021/12/05 02:54:14;;;;;;;3.38;0.70;;;9.40;72.90;;;;;;4961034;28;20039;-93
2021/12/05 02:56:27;;;;;;;4.07;1.13;;;9.30;72.80;;;;;;4964024;28;20522;-93
2021/12/05 02:58:57;;;;;;;1.02;0.40;;;9.30;72.80;;;;;;4975881;28;20041;-91
2021/12/05 03:03:56;;;;;;;2.05;0.65;;;9.30;72.70;;;;;;4962113;28;20035;-89
2021/12/05 03:06:27;;;;;;;1.65;0.40;;;9.30;72.70;;;;;;4964716;28;20046;-89
2021/12/05 03:09:13;;;;;;;0.75;0.38;;;9.80;72.90;;;;;;4950128;28;20046;-90
2021/12/05 03:11:39;;;;;;;;;;;9.30;72.50;;;;;;4961813;28;20026;-92
2021/12/05 03:14:06;;;;;;;2.22;0.57;;;9.30;72.60;;;;;;4976898;28;19923;-89
2021/12/05 03:16:35;;;;;;;2.58;1.15;;;9.30;72.50;;;;;;4959313;28;20034;-93
2021/12/05 03:19:03;;;;;;;4.88;1.08;;;9.70;72.70;;;;;;4967226;28;20529;-92
2021/12/05 03:21:30;;;;;;;1.55;0.75;;;9.50;72.60;;;;;;4957540;28;20030;-93
2021/12/05 03:23:56;;;;;;;1.30;0.50;;;9.40;72.50;;;;;;4969071;28;20042;-90
2021/12/05 03:26:27;;;;;;;2.00;0.57;;;9.20;72.30;;;;;;4975175;28;20025;-89
2021/12/05 03:28:56;;;;;;;5.65;1.67;;;9.20;72.30;;;;;;4964536;28;20529;-90
2021/12/05 03:31:29;;;;;;;4.70;1.42;;;9.50;72.50;;;;;;4985039;28;20191;-91
2021/12/05 03:33:56;;;;;;;6.97;1.20;;;9.20;72.30;;;;;;4943622;28;20062;-93
2021/12/05 03:36:23;;;;;;;4.72;1.15;;;9.20;72.30;;;;;;4963007;28;20026;-93
2021/12/05 03:38:49;;;;;;;3.80;1.10;;;9.20;72.30;;;;;;4949005;28;20052;-94
2021/12/05 03:41:16;;;;;;;3.30;1.35;;;9.20;72.30;;;;;;4979481;28;20023;-92
2021/12/05 03:43:45;;;;;;;2.15;0.95;;;9.20;72.20;;;;;;4974308;28;20033;-90
2021/12/05 03:46:11;;;;;;;5.93;2.72;;;9.20;72.20;;;;;;4992470;28;20034;-90
2021/12/05 03:48:50;;;;;;;3.58;1.50;;;9.20;72.20;;;;;;4974306;28;20513;-93
2021/12/05 03:51:18;;;;;;;3.53;1.38;;;9.50;72.40;;;;;;4959501;28;20034;-93
2021/12/05 03:53:44;;;;;;;2.45;1.00;;;9.20;72.20;;;;;;4957385;28;20038;-93
2021/12/05 03:56:10;;;;;;;1.70;0.65;;;9.20;72.20;;;;;;4962629;28;20030;-93
2021/12/05 03:58:39;;;;;;;3.92;1.02;;;9.20;72.70;;;;;;4953949;28;20040;-92
2021/12/05 04:01:09;;;;;;;4.97;1.73;;;9.10;72.00;;;;;;4962831;28;20034;-93
2021/12/05 04:03:36;;;;;;;1.02;0.50;;;9.60;72.20;;;;;;4974879;28;20504;-93
2021/12/05 04:06:04;;;;;;;3.88;1.35;;;9.60;72.30;;;;;;4950598;28;20049;-93
2021/12/05 04:08:31;;;;;;;1.27;0.60;;;9.20;72.00;;;;;;4945501;28;20042;-93
2021/12/05 04:11:03;;;;;;;2.90;0.60;;;9.20;72.00;;;;;;4952815;28;20080;-93
2021/12/05 04:13:31;;;;;;;8.65;2.65;;;9.20;71.90;;;;;;4957092;28;20105;-90
2021/12/05 04:16:00;;;;;;;6.80;2.00;;;9.30;72.00;;;;;;4949169;28;20036;-92
2021/12/05 04:18:30;;;;;;;4.47;2.00;;;9.10;71.80;;;;;;4972103;28;20845;-94
2021/12/05 04:20:56;;;;;;;5.45;1.40;;;9.10;71.80;;;;;;4986314;28;20045;-91
2021/12/05 04:23:22;;;;;;;4.13;1.60;;;9.70;72.20;;;;;;4982077;28;20079;-89
2021/12/05 04:25:50;;;;;;;4.03;1.90;;;9.20;71.90;;;;;;4974209;28;20149;-94
2021/12/05 04:28:22;;;;;;;4.22;2.03;;;9.30;71.90;;;;;;4969599;28;20037;-93
2021/12/05 04:30:48;;;;;;;2.35;1.17;;;9.30;72.00;;;;;;4976398;28;20061;-93
2021/12/05 04:33:14;;;;;;;2.03;1.00;;;9.00;71.80;;;;;;4979851;28;20175;-94
2021/12/05 04:35:40;;;;;;;2.22;1.00;;;9.30;72.10;;;;;;4992581;28;20526;-92
2021/12/05 04:38:06;;;;;;;1.52;0.75;;;9.00;72.00;;;;;;4994245;28;20029;-92
2021/12/05 04:40:35;;;;;;;1.60;0.80;;;9.40;72.20;;;;;;4967900;28;20038;-94
2021/12/05 04:43:02;;;;;;;3.47;1.27;;;9.00;72.00;;;;;;4963772;28;20030;-93
2021/12/05 04:45:30;;;;;;;5.45;2.47;;;9.00;72.00;;;;;;4960516;28;20034;-89
2021/12/05 04:47:56;;;;;;;3.72;1.20;;;9.00;72.00;;;;;;4982508;28;20048;-93
2021/12/05 04:50:23;;;;;;;1.63;0.65;;;9.00;72.00;;;;;;4971406;28;20035;-92
2021/12/05 04:52:50;;;;;;;3.75;1.48;;;9.00;72.10;;;;;;5002688;28;20514;-93
2021/12/05 04:55:17;;;;;;;3.42;0.85;;;9.50;72.40;;;;;;4983597;28;20064;-91
2021/12/05 04:57:44;;;;;;;3.08;1.05;;;9.30;72.20;;;;;;5001288;28;20511;-93
2021/12/05 05:00:31;;;;;;;4.50;0.85;;;9.00;72.10;;;;;;4979912;28;20080;-93
2021/12/05 05:02:57;;;;;;;4.13;1.35;;;9.00;72.00;;;;;;5008020;28;20038;-93
2021/12/05 05:05:26;;;;;;;4.22;0.77;;;9.00;72.10;;;;;;5005414;28;20029;-92
2021/12/05 05:07:53;;;;;;;4.57;0.90;;;9.00;72.10;;;;;;5003216;28;20030;-92
2021/12/05 05:10:28;;;;;;;4.15;1.42;;;9.20;72.30;;;;;;4968805;28;20223;-93
2021/12/05 05:12:55;;;;;;;5.15;0.77;;;9.50;72.40;;;;;;4976190;28;20026;-92
2021/12/05 05:15:25;;;;;;;4.82;1.00;;;9.00;72.20;;;;;;4998180;28;20042;-89
2021/12/05 05:17:55;;;;;;;2.10;0.52;;;9.20;72.30;;;;;;4987669;28;20305;-90
2021/12/05 05:28:58;;;;;;;7.60;0.90;;;8.90;72.20;;;;;;4968750;28;20507;-93
2021/12/05 05:47:26;;;;;;;1.75;0.40;;;8.90;72.60;;;;;;4983159;28;20058;-92
2021/12/05 05:50:01;;;;;;;0.55;0.28;;;9.20;72.80;;;;;;4982605;28;20031;-94
2021/12/05 05:52:29;;;;;;;4.53;0.60;;;8.90;72.60;;;;;;4979342;28;20061;-93
2021/12/05 05:54:58;;;;;;;1.17;0.40;;;9.00;72.70;;;;;;4955203;28;20046;-90
2021/12/05 05:57:58;;;;;;;0.43;0.22;;;8.90;72.70;;;;;;4951751;28;20045;-92
2021/12/05 06:00:31;;;;;;;1.10;0.50;;;8.90;72.80;;;;;;4991459;28;20656;-92
2021/12/05 06:05:41;;;;;;;1.15;0.40;;;8.90;72.90;;;;;;4964108;28;20083;-94
2021/12/05 06:08:07;;;;;;;0.88;0.25;;;8.90;72.80;;;;;;4959628;28;20480;-94
2021/12/05 06:10:33;;;;;;;4.75;0.60;;;9.10;72.90;;;;;;4948691;28;20114;-94
2021/12/05 06:13:00;;;;;;;1.45;0.40;;;8.80;72.80;;;;;;4982868;28;20041;-93
2021/12/05 06:15:30;;;;;;;2.88;0.57;;;8.90;72.90;;;;;;4966122;28;20034;-93
2021/12/05 06:17:56;;;;;;;0.95;0.50;;;9.10;73.10;;;;;;4956581;28;20042;-92
2021/12/05 06:20:26;;;;;;;3.92;0.60;;;8.80;73.00;;;;;;4977975;28;20050;-94
2021/12/05 06:22:54;;;;;;;3.17;0.52;;;8.80;73.00;;;;;;4985768;28;20482;-93
2021/12/05 06:25:24;;;;;;;3.30;0.63;;;8.90;73.00;;;;;;4983825;28;20065;-93
2021/12/05 06:27:53;;;;;;;2.67;0.35;;;8.80;73.00;;;;;;5003345;28;20140;-94
2021/12/05 06:41:09;;;;;;;2.92;0.57;;;9.00;73.10;;;;;;4998764;28;20284;-93
2021/12/05 06:48:35;;;;;;;2.78;0.82;;;8.90;73.00;;;;;;4998173;28;20038;-92
2021/12/05 06:51:02;;;;;;;2.97;0.60;;;8.90;73.00;;;;;;4976822;28;20083;-92
2021/12/05 06:53:27;;;;;;;3.10;0.52;;;9.10;73.10;;;;;;4998177;28;20018;-93
2021/12/05 06:55:53;;;;;;;1.67;0.68;;;9.00;73.10;;;;;;4987684;28;20107;-93
2021/12/05 06:58:19;;;;;;;5.15;0.88;;;9.00;73.10;;;;;;4985009;28;20057;-93
2021/12/05 07:00:45;;;;;;;4.72;1.13;;;9.20;73.30;;;;;;4979766;28;20092;-89
2021/12/05 07:03:11;;;;;;;1.10;0.22;;;8.80;73.00;;;;;;4974070;28;20129;-93
2021/12/05 07:06:01;;;;;;;0.85;0.38;;;8.90;73.10;;;;;;4977863;28;20038;-93
2021/12/05 07:08:32;;;;;;;2.70;1.00;;;8.80;73.00;;;;;;4997735;28;20109;-94
2021/12/05 07:11:05;;;;;;;3.42;0.65;;;9.00;73.10;;;;;;4970770;28;20399;-94
2021/12/05 07:16:32;;;;;;;3.00;0.70;;;8.90;73.30;;;;;;4973867;28;20100;-92
2021/12/05 07:21:48;;;;;;;4.85;0.88;;;8.90;73.20;;;;;;5002986;28;20037;-92
2021/12/05 07:27:03;;;;;;;3.20;1.52;;;9.20;73.30;;;;;;4988298;28;20450;-94
2021/12/05 07:40:44;;;;;;;3.65;1.40;;;8.90;73.20;;;;;;4984704;28;20036;-94
2021/12/05 07:43:11;;;;;;;3.10;0.60;;;8.90;73.20;;;;;;4999673;28;20087;-93
2021/12/05 07:45:47;;;;;;;4.10;0.73;;;9.00;73.30;;;;;;4966425;28;20049;-93
2021/12/05 07:48:19;;;;;;;3.88;0.80;;;8.90;73.40;;;;;;5001701;28;20021;-94
2021/12/05 07:50:57;;;;;;;3.70;0.80;;;8.90;73.40;;;;;;4986452;28;20014;-91
2021/12/05 07:53:36;;;;;;;4.80;0.90;;;8.90;73.50;;;;;;4992732;28;20013;-90
2021/12/05 07:56:11;;;;;;;7.07;1.08;;;9.10;73.60;;;;;;5003450;28;20037;-93
2021/12/05 07:58:58;;;;;;;2.38;0.70;;;9.00;73.70;;;;;;4977477;28;20034;-89
2021/12/05 08:15:29;;;;;;;4.72;1.33;;;8.90;73.70;;;;;;4969091;28;20045;-89
2021/12/05 08:17:58;;;;;;;1.65;0.73;;;9.30;74.10;;;;;;4967545;28;20034;-94
2021/12/05 08:20:35;;;;;;;2.22;0.95;;;9.20;74.60;;;;;;4969923;28;20118;-90
2021/12/05 08:23:02;;;;;;;3.20;1.00;;;9.00;74.10;;;;;;4985227;28;20026;-93
2021/12/05 08:25:31;;;;;;;1.60;0.57;;;9.00;74.00;;;;;;4987911;28;20037;-93
2021/12/05 08:28:29;;;;;;;5.65;1.13;;;9.00;74.00;;;;;;4993400;28;20029;-94
2021/12/05 08:30:58;;;;;;;1.88;0.70;;;9.00;74.10;;;;;;4989275;28;20042;-94
2021/12/05 08:33:40;;;;;;;5.65;1.55;;;9.00;74.20;;;;;;4994523;28;20455;-92
2021/12/05 08:36:32;;;;;;;5.60;1.40;;;9.00;74.80;;;;;;4989709;28;20046;-94
2021/12/05 08:41:40;;;;;;;8.32;1.50;;;8.90;74.20;;;;;;4997121;28;20030;-95
2021/12/05 10:09:43;;;;;;;3.90;1.27;;;9.10;75.80;;;;;;4986121;28;20109;-93
2021/12/05 10:12:58;;;;;;;1.92;0.77;;;9.10;76.10;;;;;;4958373;28;20115;-94
2021/12/05 10:15:54;;;;;;;3.67;0.90;;;9.10;75.90;;;;;;4968702;28;20282;-94
2021/12/05 10:38:26;;;;;;;1.25;0.88;;;9.20;76.30;;;;;;4976949;28;20042;-93
2021/12/05 10:43:54;;;;;;;2.83;0.98;;;9.20;76.30;;;;;;4983852;28;20069;-93
2021/12/05 10:46:23;;;;;;;2.22;0.70;;;9.20;76.30;;;;;;4962343;28;20035;-89
2021/12/05 10:49:03;;;;;;;3.33;1.05;;;9.50;76.50;;;;;;4951430;28;20053;-89
2021/12/05 10:51:42;;;;;;;4.30;1.40;;;9.20;76.30;;;;;;4964222;28;20117;-94
2021/12/05 10:54:17;;;;;;;4.13;0.93;;;9.30;76.40;;;;;;4979603;28;20102;-93
2021/12/05 10:56:52;;;;;;;1.85;0.70;;;9.30;76.40;;;;;;4980631;28;20037;-94
2021/12/05 10:59:29;;;;;;;4.10;1.00;;;9.30;76.40;;;;;;4970759;28;20037;-89
2021/12/05 11:02:03;;;;;;;2.72;1.27;;;9.30;76.40;;;;;;4950993;28;20043;-94
2021/12/05 11:04:39;;;;;;;6.00;0.85;;;9.30;76.40;;;;;;4980445;28;20038;-93
2021/12/05 11:07:05;;;;;;;3.17;1.10;;;9.30;76.40;;;;;;4968227;28;20030;-89
2021/12/05 11:09:36;;;;;;;3.85;1.02;;;9.40;76.60;;;;;;4991503;28;20034;-92
2021/12/05 11:12:17;;;;;;;4.00;1.05;;;9.80;76.80;;;;;;4962171;28;20026;-89
2021/12/05 11:15:08;;;;;;;4.68;0.85;;;9.40;76.60;;;;;;4969482;28;20043;-93
2021/12/05 11:17:37;;;;;;;2.70;1.35;;;9.40;76.60;;;;;;4970110;28;20026;-93
2021/12/05 11:20:06;;;;;;;2.42;0.90;;;9.40;76.60;;;;;;4949790;28;20450;-90
2021/12/05 11:22:46;;;;;;;1.35;0.70;;;9.70;76.90;;;;;;4980231;28;20069;-89
2021/12/05 11:25:19;;;;;;;4.63;1.40;;;9.40;76.80;;;;;;4935794;28;20499;-93
2021/12/05 11:27:47;;;;;;;1.27;0.50;;;9.40;77.00;;;;;;4979430;28;20019;-91
2021/12/05 11:30:31;;;;;;;2.10;0.75;;;9.40;77.20;;;;;;4944311;28;20030;-92
2021/12/05 11:33:02;;;;;;;3.75;0.70;;;9.70;77.50;;;;;;4948002;28;20090;-93
2021/12/05 11:35:42;;;;;;;3.33;1.23;;;9.80;77.50;;;;;;4962905;28;20586;-93
2021/12/05 11:38:13;;;;;;;4.10;0.80;;;9.50;77.30;;;;;;4954465;28;20030;-93
2021/12/05 11:41:20;;;;;;;1.10;0.63;;;9.40;77.30;;;;;;4975402;28;20519;-94
2021/12/05 11:44:07;;;;;;;1.85;0.93;;;9.50;77.30;;;;;;4920509;29;20036;-94
2021/12/05 11:46:39;;;;;;;1.08;0.55;;;9.50;77.80;;;;;;4964152;28;20042;-93
2021/12/05 11:49:08;;;;;;;3.25;0.90;;;9.80;77.40;;;;;;4948213;28;20496;-89
2021/12/05 11:51:40;;;;;;;2.55;0.80;;;9.50;77.30;;;;;;4961954;28;20031;-93
2021/12/05 11:54:16;;;;;;;3.60;1.20;;;9.50;77.30;;;;;;4989371;28;20030;-93
2021/12/05 11:56:44;;;;;;;1.90;0.80;;;9.50;77.30;;;;;;4987913;28;20046;-91
2021/12/05 11:59:38;;;;;;;2.25;1.13;;;9.50;77.30;;;;;;4980891;28;20042;-93
2021/12/05 12:02:16;;;;;;;4.63;1.10;;;9.60;77.40;;;;;;4960727;28;20132;-93
2021/12/05 12:04:53;;;;;;;1.88;0.80;;;9.50;77.30;;;;;;4975201;28;20495;-93
2021/12/05 12:07:42;;;;;;;1.63;0.68;;;9.60;77.40;;;;;;4973850;28;20053;-94
2021/12/05 12:10:19;;;;;;;5.28;1.55;;;9.90;77.60;;;;;;4989281;28;20117;-94
2021/12/05 12:13:03;;;;;;;3.08;1.35;;;9.50;77.30;;;;;;4995107;28;20031;-93
2021/12/05 12:15:31;;;;;;;3.40;1.67;;;9.50;77.30;;;;;;4982560;28;20101;-94
2021/12/05 12:18:08;;;;;;;2.70;0.88;;;9.50;77.30;;;;;;4968546;28;20088;-94
2021/12/05 12:20:39;;;;;;;5.60;1.50;;;9.50;77.30;;;;;;4987830;28;20038;-94
2021/12/05 12:23:04;;;;;;;5.38;2.10;;;9.50;77.60;;;;;;4975139;28;20034;-93
2021/12/05 12:25:36;;;;;;;4.22;1.65;;;9.80;77.70;;;;;;4949838;28;20089;-94
2021/12/05 12:28:04;;;;;;;6.78;2.45;;;9.50;77.60;;;;;;4978096;28;20368;-94
2021/12/05 12:30:35;;;;;;;7.60;1.48;;;9.50;77.60;;;;;;4966871;28;20023;-95
2021/12/05 12:33:24;;;;;;;2.95;1.25;;;9.60;77.70;;;;;;4993713;28;20668;-94
2021/12/05 12:35:50;;;;;;;10.20;1.48;;;9.50;77.70;;;;;;4969090;28;20045;-94
2021/12/05 12:38:32;;;;;;;8.77;1.83;;;9.50;77.80;;;;;;4962399;28;20042;-94
2021/12/05 12:41:11;;;;;;;5.07;1.83;;;9.50;77.90;;;;;;4944750;28;20446;-93
2021/12/05 12:44:05;;;;;;;4.35;1.60;;;9.80;78.30;;;;;;4960250;28;20504;-91
2021/12/05 12:46:54;;;;;;;4.43;1.40;;;9.70;78.30;;;;;;4977452;28;20488;-91
2021/12/05 12:49:22;;;;;;;3.75;1.40;;;9.60;78.40;;;;;;4957975;28;20406;-92
2021/12/05 12:52:00;;;;;;;5.10;1.60;;;9.50;78.30;;;;;;4992794;28;20029;-93
2021/12/05 12:54:48;;;;;;;4.63;1.35;;;9.90;78.60;;;;;;4970481;28;20068;-87
2021/12/05 12:57:24;;;;;;;3.28;0.90;;;9.50;78.40;;;;;;4987506;28;20403;-92
2021/12/05 13:00:11;;;;;;;2.58;1.17;;;9.50;78.40;;;;;;4962022;28;20030;-91
2021/12/05 13:07:22;;;;;;;1.65;0.57;;;9.50;78.40;;;;;;4992442;28;20614;-89
2021/12/05 13:11:15;;;;;;;2.38;0.95;;;9.80;78.60;;;;;;4977670;28;20206;-92
2021/12/05 13:13:45;;;;;;;3.13;1.27;;;9.50;78.50;;;;;;4944791;28;20171;-91
2021/12/05 13:16:27;;;;;;;2.42;1.05;;;9.50;78.40;;;;;;4972613;28;20042;-91
2021/12/05 13:19:26;;;;;;;2.17;0.80;;;9.50;78.60;;;;;;4966941;28;20029;-89
2021/12/05 13:21:54;;;;;;;2.22;0.60;;;9.50;78.50;;;;;;4962623;28;20050;-89
2021/12/05 13:24:31;;;;;;;1.45;0.57;;;9.50;78.40;;;;;;4980472;28;20026;-91
2021/12/05 13:27:04;;;;;;;2.53;0.43;;;9.50;78.40;;;;;;4997936;28;20056;-93
2021/12/05 13:29:38;;;;;;;4.05;0.77;;;9.50;78.20;;;;;;4969864;28;20037;-94
2021/12/05 13:32:14;;;;;;;31.17;10.20;;;9.40;78.10;;;;;;4983534;28;20072;-94
2021/12/05 13:34:49;;;;;;;6.07;3.00;;;9.40;78.00;;;;;;4981800;28;20048;-92
2021/12/05 13:37:16;;;;;;;4.25;2.58;;;9.40;77.90;;;;;;4984248;28;20073;-93
2021/12/05 13:40:02;;;;;;;1.48;0.93;;;9.70;78.00;;;;;;4998894;28;20065;-93
2021/12/05 13:42:45;;;;;;;2.28;0.98;;;9.40;77.80;;;;;;4988873;28;20053;-95
2021/12/05 13:45:25;;;;;;;3.50;1.50;;;9.40;77.80;;;;;;5006360;28;20065;-94
2021/12/05 13:47:51;;;;;;;8.45;2.85;;;9.40;78.00;;;;;;5010602;28;20034;-89
2021/12/05 13:50:23;;;;;;;2.80;1.20;;;9.40;78.10;;;;;;5004363;28;20053;-92
2021/12/05 13:53:01;;;;;;;9.07;2.72;;;9.40;78.70;;;;;;5003841;28;20038;-91
2021/12/05 13:55:39;;;;;;;3.65;1.60;;;9.40;78.20;;;;;;5000350;28;20042;-92
2021/12/05 13:58:38;;;;;;;4.53;1.08;;;9.40;78.20;;;;;;5015258;28;20037;-90
2021/12/05 14:01:25;;;;;;;5.82;2.30;;;9.40;78.10;;;;;;5027076;28;20030;-91
2021/12/05 14:04:24;;;;;;;11.02;3.30;;;9.40;78.10;;;;;;5012016;28;20562;-88
2021/12/05 14:06:54;;;;;;;4.82;2.22;;;9.40;78.20;;;;;;4981580;28;20034;-93
2021/12/05 14:09:43;;;;;;;4.32;1.92;;;9.40;78.30;;;;;;4996610;28;20117;-92
2021/12/05 14:12:18;;;;;;;5.53;2.08;;;9.40;78.30;;;;;;4981517;28;20117;-89
2021/12/05 14:14:52;;;;;;;;;;;9.40;78.30;;;;;;5006705;28;20484;-93
2021/12/05 14:17:23;;;;;;;4.40;2.38;;;9.40;78.40;;;;;;4981580;28;19932;-93
2021/12/05 14:20:04;;;;;;;4.43;2.45;;;9.40;78.30;;;;;;5007726;28;20050;-92
2021/12/05 14:22:34;;;;;;;6.13;1.80;;;9.40;78.40;;;;;;4982233;28;20085;-91
2021/12/05 14:25:07;;;;;;;5.57;2.03;;;9.50;78.60;;;;;;4999822;28;20094;-91
2021/12/05 14:27:43;;;;;;;5.35;1.42;;;9.40;78.50;;;;;;4966428;28;20084;-92
2021/12/05 14:30:13;;;;;;;3.00;1.17;;;9.50;78.70;;;;;;4984633;28;20026;-92
2021/12/05 14:32:45;;;;;;;4.00;1.65;;;9.50;78.80;;;;;;4978575;28;20522;-92
2021/12/05 14:35:18;;;;;;;4.25;1.70;;;9.50;78.80;;;;;;5000036;28;20026;-93
2021/12/05 14:37:47;;;;;;;6.75;2.55;;;9.80;79.00;;;;;;4966274;28;20491;-88
2021/12/05 14:40:35;;;;;;;4.60;2.00;;;9.60;78.90;;;;;;4967911;28;20124;-92
2021/12/05 14:43:09;;;;;;;6.78;2.78;;;9.50;78.80;;;;;;4966454;28;20038;-92
2021/12/05 14:45:39;;;;;;;4.00;1.65;;;9.50;79.40;;;;;;4984522;28;20030;-93
2021/12/05 14:48:12;;;;;;;5.30;1.60;;;9.50;78.80;;;;;;4987200;28;20033;-92
2021/12/05 14:50:40;;;;;;;2.25;1.40;;;9.60;78.80;;;;;;4962216;28;20097;-91
2021/12/05 14:53:09;;;;;;;3.10;1.60;;;9.60;78.90;;;;;;4970231;28;20030;-93
2021/12/05 14:55:35;;;;;;;2.58;1.30;;;9.60;78.90;;;;;;4991278;28;20503;-93
2021/12/05 14:58:07;;;;;;;3.30;1.50;;;9.60;78.90;;;;;;4969612;28;20033;-92
2021/12/05 15:00:47;;;;;;;4.65;1.48;;;10.10;79.10;;;;;;4968265;28;20040;-92
2021/12/05 15:03:20;;;;;;;2.67;1.40;;;9.60;78.90;;;;;;4989299;28;20029;-91
2021/12/05 15:05:55;;;;;;;3.58;1.85;;;9.90;79.20;;;;;;4965961;28;20368;-92
2021/12/05 15:08:24;;;;;;;2.92;1.40;;;9.60;79.00;;;;;;4971686;28;20129;-94
2021/12/05 15:10:57;;;;;;;4.70;1.80;;;10.00;79.20;;;;;;4985688;28;20021;-92
2021/12/05 15:13:23;;;;;;;3.60;1.20;;;9.60;79.00;;;;;;4979949;28;20033;-94
2021/12/05 15:15:49;;;;;;;5.30;1.40;;;10.00;79.40;;;;;;4966071;28;20033;-88
2021/12/05 15:18:19;;;;;;;3.70;1.55;;;9.60;79.20;;;;;;4971849;28;20034;-92
2021/12/05 15:20:46;;;;;;;5.28;1.67;;;9.60;79.20;;;;;;4988129;28;20033;-93
2021/12/05 15:23:12;;;;;;;8.45;3.58;;;9.60;79.10;;;;;;4982155;28;20034;-90
2021/12/05 15:25:40;;;;;;;5.10;2.67;;;9.60;79.20;;;;;;4990519;28;20049;-92
2021/12/05 15:28:08;;;;;;;7.60;1.63;;;9.60;79.10;;;;;;4971048;28;20041;-89
2021/12/05 15:30:44;;;;;;;3.08;1.50;;;10.00;79.30;;;;;;4989297;28;20149;-93
2021/12/05 15:33:22;;;;;;;4.28;1.63;;;9.60;79.00;;;;;;4978698;28;20033;-94
2021/12/05 15:35:50;;;;;;;4.25;3.13;;;9.60;78.90;;;;;;4987727;28;20033;-92
2021/12/05 15:38:22;;;;;;;3.72;1.98;;;9.90;79.10;;;;;;4989150;28;20029;-92
2021/12/05 15:40:52;;;;;;;2.85;0.90;;;9.50;78.90;;;;;;4981712;28;20030;-92
2021/12/05 15:43:21;;;;;;;3.00;1.15;;;9.50;78.90;;;;;;4965279;28;20037;-91
2021/12/05 15:45:50;;;;;;;2.33;1.25;;;9.50;78.80;;;;;;4973556;28;20029;-92
2021/12/05 15:48:29;;;;;;;1.50;0.73;;;9.50;78.70;;;;;;4983122;28;20065;-91
2021/12/05 15:50:55;;;;;;;4.75;1.52;;;9.50;78.70;;;;;;4998371;28;20033;-93
2021/12/05 15:53:23;;;;;;;3.70;1.80;;;9.50;78.70;;;;;;4965264;28;20058;-91
2021/12/05 15:56:03;;;;;;;6.93;2.55;;;9.50;78.70;;;;;;4977290;28;20080;-91
2021/12/05 15:58:40;;;;;;;29.55;7.88;;;9.50;78.70;;;;;;4969738;28;20069;-87
2021/12/05 16:01:20;;;;;;;9.68;4.53;;;9.50;78.70;;;;;;5001102;28;20045;-87
2021/12/05 16:03:51;;;;;;;8.20;3.88;;;9.70;78.80;;;;;;4999387;28;20033;-89
2021/12/05 16:06:21;;;;;;;6.65;3.17;;;9.70;78.80;;;;;;4971662;28;20034;-91
2021/12/05 16:08:49;;;;;;;4.55;2.25;;;9.80;78.80;;;;;;4981581;28;20434;-90
2021/12/05 16:11:20;;;;;;;6.82;2.35;;;9.60;78.60;;;;;;4959897;28;20038;-86
2021/12/05 16:13:50;;;;;;;1.92;1.17;;;9.70;78.70;;;;;;4986318;28;20034;-86
2021/12/05 16:16:26;;;;;;;3.38;1.85;;;9.70;78.60;;;;;;4993714;28;20230;-88
2021/12/05 16:18:57;;;;;;;5.18;1.98;;;9.50;78.50;;;;;;4988243;28;20029;-89
2021/12/05 16:21:32;;;;;;;5.22;1.90;;;9.60;78.50;;;;;;4974565;28;20034;-90
2021/12/05 16:24:15;;;;;;;;;;;9.50;78.40;;;;;;4968761;28;20037;-90
2021/12/05 16:26:44;;;;;;;5.47;2.58;;;9.50;78.40;;;;;;5001083;28;19940;-90
2021/12/05 16:29:20;;;;;;;3.67;1.50;;;9.50;78.20;;;;;;5007694;28;20041;-90
2021/12/05 16:31:50;;;;;;;4.70;1.65;;;9.50;78.20;;;;;;4977688;28;20046;-91
2021/12/05 16:34:24;;;;;;;2.92;1.15;;;9.50;78.20;;;;;;4994688;28;20810;-88
2021/12/05 16:37:05;;;;;;;3.08;1.25;;;9.50;78.10;;;;;;4972466;28;20038;-89
2021/12/05 16:39:40;;;;;;;5.63;1.83;;;9.50;78.00;;;;;;4970608;28;20073;-90
2021/12/05 16:42:13;;;;;;;4.18;1.38;;;9.50;78.00;;;;;;4987546;28;20148;-89
2021/12/05 16:44:40;;;;;;;2.25;1.35;;;9.40;78.00;;;;;;4969454;28;20026;-91
2021/12/05 16:47:16;;;;;;;4.07;1.80;;;9.40;78.00;;;;;;4987929;28;20113;-91
2021/12/05 16:49:46;;;;;;;3.90;1.45;;;9.50;78.20;;;;;;4994853;28;20046;-91
2021/12/05 16:52:29;;;;;;;5.28;1.35;;;9.50;78.30;;;;;;4996118;28;20034;-91
2021/12/05 16:55:08;;;;;;;4.18;1.70;;;9.40;78.30;;;;;;4999549;28;20061;-92
2021/12/05 16:57:43;;;;;;;2.30;1.20;;;9.60;78.50;;;;;;5017356;28;20457;-91
2021/12/05 17:00:15;;;;;;;2.50;1.20;;;9.40;78.30;;;;;;4977376;28;20087;-91
2021/12/05 17:02:55;;;;;;;4.40;1.83;;;9.40;78.30;;;;;;5008550;28;20062;-92
2021/12/05 17:05:48;;;;;;;8.32;4.10;;;9.50;78.40;;;;;;4976282;28;20088;-92
2021/12/05 17:08:22;;;;;;;3.78;2.50;;;9.70;78.50;;;;;;4995628;28;20113;-94
2021/12/05 17:10:58;;;;;;;3.65;2.03;;;9.50;78.40;;;;;;4997128;28;20060;-88
2021/12/05 17:13:34;;;;;;;5.43;2.42;;;9.50;78.40;;;;;;4993058;28;20037;-92
2021/12/05 17:16:27;;;;;;;4.38;2.60;;;9.50;78.40;;;;;;5015116;28;22704;-92
2021/12/05 17:19:05;;;;;;;7.88;3.70;;;9.50;78.40;;;;;;5012247;28;20018;-94
2021/12/05 17:21:47;;;;;;;6.40;3.40;;;9.50;78.40;;;;;;4977944;28;20045;-96
2021/12/05 17:24:19;;;;;;;7.25;3.38;;;9.50;78.40;;;;;;4966738;28;20030;-94
2021/12/05 17:26:53;;;;;;;6.05;2.60;;;9.50;78.40;;;;;;5014636;28;20467;-93
2021/12/05 17:29:38;;;;;;;4.85;2.45;;;9.50;78.40;;;;;;4991617;28;20075;-94
2021/12/05 17:32:08;;;;;;;;;;;9.60;78.50;;;;;;4976812;28;20137;-95
2021/12/05 17:34:51;;;;;;;8.13;4.50;;;9.60;78.50;;;;;;5001223;28;20433;-94
2021/12/05 17:37:27;;;;;;;9.43;5.35;;;9.60;78.40;;;;;;4993118;28;20040;-94
2021/12/05 17:39:54;;;;;;;10.27;3.33;;;9.60;78.50;;;;;;4988810;28;20546;-91
2021/12/05 17:42:26;;;;;;;10.50;4.10;;;9.60;78.50;;;;;;4979375;28;20278;-94
2021/12/05 17:45:01;;;;;;;6.05;3.78;;;9.50;78.50;;;;;;4980821;28;20045;-93
2021/12/05 17:47:27;;;;;;;7.90;3.90;;;9.60;78.70;;;;;;5011216;28;20053;-93
2021/12/05 17:49:57;;;;;;;7.75;4.05;;;9.70;78.70;;;;;;4990008;28;20160;-93
2021/12/05 17:52:25;;;;;;;5.72;2.80;;;9.60;78.80;;;;;;4972565;28;20057;-89
2021/12/05 17:55:21;;;;;;;6.18;3.17;;;9.60;78.70;;;;;;4982848;28;20065;-94
2021/12/05 17:57:57;;;;;;;;;;;10.10;79.10;;;;;;4991026;28;20030;-91
2021/12/05 18:00:39;;;;;;;13.18;5.63;;;9.60;78.90;;;;;;5001426;28;19901;-90
2021/12/05 18:03:11;;;;;;;14.00;6.07;;;9.60;78.70;;;;;;4999220;28;20031;-90
2021/12/05 18:05:47;;;;;;;9.80;5.53;;;9.60;78.70;;;;;;5000126;28;20203;-89
2021/12/05 18:08:18;;;;;;;6.63;3.15;;;9.80;79.00;;;;;;4965933;28;20033;-94
2021/12/05 18:10:53;;;;;;;7.68;4.03;;;9.60;79.00;;;;;;4993117;28;20030;-91
2021/12/05 18:13:24;;;;;;;6.85;2.80;;;10.10;79.30;;;;;;5000265;28;20084;-93
2021/12/05 18:15:59;;;;;;;5.10;2.10;;;10.00;79.30;;;;;;4986046;28;20487;-93
2021/12/05 18:18:27;;;;;;;7.55;2.30;;;9.60;79.10;;;;;;4988472;28;20030;-88
2021/12/05 18:20:53;;;;;;;5.65;2.08;;;9.60;79.00;;;;;;4988872;28;20053;-92
2021/12/05 18:23:20;;;;;;;5.80;1.92;;;9.60;79.10;;;;;;4977901;28;20502;-93
2021/12/05 18:25:46;;;;;;;4.45;1.27;;;9.60;79.00;;;;;;4973981;28;20061;-93
2021/12/05 18:28:12;;;;;;;6.40;2.50;;;9.60;79.00;;;;;;5008636;28;20060;-93
2021/12/05 18:30:39;;;;;;;7.03;2.17;;;9.60;79.00;;;;;;4998172;28;20038;-92
2021/12/05 18:33:09;;;;;;;5.97;2.55;;;9.70;79.00;;;;;;4983481;28;20523;-93
2021/12/05 18:35:35;;;;;;;4.35;2.20;;;9.60;78.90;;;;;;4992079;28;20041;-93
2021/12/05 18:38:10;;;;;;;4.47;1.95;;;9.70;79.00;;;;;;5009589;28;20510;-92
2021/12/05 18:40:39;;;;;;;5.07;1.70;;;9.60;78.90;;;;;;4987061;28;20147;-93
2021/12/05 18:43:05;;;;;;;4.05;1.88;;;9.60;78.80;;;;;;4978894;28;20045;-93
2021/12/05 18:45:37;;;;;;;5.40;1.80;;;9.80;78.90;;;;;;4981583;28;20032;-93
2021/12/05 18:48:04;;;;;;;3.95;1.88;;;9.60;78.80;;;;;;4989349;28;20080;-92
2021/12/05 18:50:32;;;;;;;5.13;1.67;;;9.60;78.80;;;;;;4991339;28;20029;-94